Time;durP1;ratioP1;P1;durP2;ratioP2;P2;SDS_P1;SDS_P2;PMS_P1;PMS_P2;Temp;Humidity;BMP_temperature;BMP_pressure;BME280_temperature;BME280_humidity;BME280_pressure;Samples;Min_cycle;Max_cycle;Signal;HPM_P1;HPM_P2
2022/04/11 00:02:16;;;;;;;13.20;7.13;;;4.10;87.10;;;;;;5040659;28;20823;-79
2022/04/11 00:04:42;;;;;;;8.27;6.00;;;4.00;87.30;;;;;;5043756;28;20416;-80
2022/04/11 00:07:08;;;;;;;6.93;5.63;;;4.00;87.70;;;;;;5041985;28;20420;-77
2022/04/11 00:09:35;;;;;;;9.60;5.43;;;4.00;87.70;;;;;;5039842;28;20432;-79
2022/04/11 00:12:01;;;;;;;9.60;5.93;;;4.00;87.60;;;;;;5039342;28;20552;-78
2022/04/11 00:14:27;;;;;;;10.50;6.30;;;4.00;87.60;;;;;;5042533;28;20502;-78
2022/04/11 00:16:53;;;;;;;12.47;7.57;;;4.00;87.70;;;;;;5038148;28;20563;-79
2022/04/11 00:19:19;;;;;;;10.03;6.43;;;4.00;87.60;;;;;;5053760;28;20424;-78
2022/04/11 00:21:45;;;;;;;10.60;7.17;;;3.90;87.40;;;;;;5043881;28;20491;-79
2022/04/11 00:24:10;;;;;;;12.90;7.80;;;3.90;87.60;;;;;;5036688;28;20430;-79
2022/04/11 00:26:36;;;;;;;15.57;8.90;;;3.90;87.70;;;;;;5038179;28;20534;-78
2022/04/11 00:29:03;;;;;;;13.97;8.70;;;3.80;87.80;;;;;;5043976;28;20208;-79
2022/04/11 00:31:31;;;;;;;14.45;7.80;;;3.80;88.00;;;;;;5048136;28;20185;-78
2022/04/11 00:33:57;;;;;;;15.00;8.77;;;3.70;88.00;;;;;;5058291;28;20205;-78
2022/04/11 00:36:23;;;;;;;12.80;7.80;;;3.70;88.10;;;;;;5048866;28;20467;-78
2022/04/11 00:38:48;;;;;;;13.23;7.90;;;3.70;88.10;;;;;;5050070;28;20196;-80
2022/04/11 00:41:14;;;;;;;9.80;6.40;;;3.80;88.40;;;;;;5031985;28;20180;-76
2022/04/11 00:43:41;;;;;;;10.53;7.20;;;3.80;88.40;;;;;;5033194;28;20247;-77
2022/04/11 00:46:08;;;;;;;13.30;7.97;;;3.80;88.10;;;;;;5036398;28;20239;-76
2022/04/11 00:48:35;;;;;;;13.33;8.10;;;3.80;88.00;;;;;;5038619;28;20426;-77
2022/04/11 00:51:27;;;;;;;14.00;8.07;;;3.70;87.80;;;;;;5038680;28;20436;-76
2022/04/11 00:53:57;;;;;;;12.93;8.90;;;3.70;88.00;;;;;;5035834;28;20432;-78
2022/04/11 00:56:24;;;;;;;15.37;9.90;;;3.70;88.00;;;;;;5030779;28;20464;-78
2022/04/11 00:58:51;;;;;;;14.70;9.17;;;3.60;88.00;;;;;;5033210;28;20476;-79
2022/04/11 01:01:17;;;;;;;12.03;7.73;;;3.60;88.40;;;;;;5036720;28;20781;-79
2022/04/11 01:03:43;;;;;;;14.90;8.00;;;3.60;88.60;;;;;;5030183;28;20424;-79
2022/04/11 01:06:08;;;;;;;16.23;8.82;;;3.60;88.70;;;;;;5038697;28;20556;-80
2022/04/11 01:08:34;;;;;;;14.40;8.60;;;3.60;88.70;;;;;;5036102;28;20270;-79
2022/04/11 01:11:02;;;;;;;14.53;8.30;;;3.50;88.90;;;;;;5033821;28;20199;-79
2022/04/11 01:13:29;;;;;;;14.00;8.37;;;3.50;89.00;;;;;;5037286;28;20428;-79
2022/04/11 01:16:02;;;;;;;13.80;8.60;;;3.50;89.00;;;;;;5032135;28;20452;-78
2022/04/11 01:18:27;;;;;;;17.50;8.73;;;3.60;88.90;;;;;;5036693;28;20431;-78
2022/04/11 01:20:54;;;;;;;14.47;9.00;;;3.60;88.70;;;;;;5031456;28;20408;-78
2022/04/11 01:23:20;;;;;;;17.57;9.83;;;3.60;88.70;;;;;;5028615;28;20477;-79
2022/04/11 01:25:50;;;;;;;13.82;8.52;;;3.50;88.70;;;;;;5033920;28;20440;-80
2022/04/11 01:28:16;;;;;;;12.03;8.40;;;3.50;88.90;;;;;;5034297;28;20181;-78
2022/04/11 01:30:42;;;;;;;11.63;7.90;;;3.60;88.90;;;;;;5034294;28;20930;-79
2022/04/11 01:33:16;;;;;;;14.37;8.30;;;3.60;88.70;;;;;;5037107;28;20435;-77
2022/04/11 01:35:42;;;;;;;11.10;7.10;;;3.60;88.60;;;;;;5037193;28;20205;-81
2022/04/11 01:38:07;;;;;;;14.73;9.40;;;3.60;88.10;;;;;;5039072;28;20466;-79
2022/04/11 01:40:34;;;;;;;15.10;8.30;;;3.50;87.80;;;;;;5039599;28;20177;-79
2022/04/11 01:42:59;;;;;;;15.10;8.55;;;3.40;87.80;;;;;;5049417;28;20386;-79
2022/04/11 01:45:25;;;;;;;11.90;7.87;;;3.40;88.00;;;;;;5036144;28;20201;-80
2022/04/11 01:47:51;;;;;;;14.13;8.27;;;3.30;88.10;;;;;;5034462;28;20181;-77
2022/04/11 01:50:17;;;;;;;12.87;8.33;;;3.30;88.30;;;;;;5036358;28;20208;-79
2022/04/11 01:52:42;;;;;;;13.93;8.90;;;3.30;88.70;;;;;;5033555;28;20715;-80
2022/04/11 01:55:08;;;;;;;11.30;7.03;;;3.40;88.60;;;;;;5042754;28;20220;-79
2022/04/11 01:57:34;;;;;;;14.13;8.37;;;3.40;88.60;;;;;;5034789;28;20208;-80
2022/04/11 02:00:00;;;;;;;12.30;8.43;;;3.40;88.70;;;;;;5037958;28;20419;-79
2022/04/11 02:02:25;;;;;;;14.40;7.63;;;3.40;88.70;;;;;;5036792;28;20185;-80
2022/04/11 02:04:51;;;;;;;12.40;8.20;;;3.50;88.70;;;;;;5034053;28;20203;-79
2022/04/11 02:07:17;;;;;;;14.13;8.83;;;3.50;88.60;;;;;;5035897;28;20185;-79
2022/04/11 02:09:43;;;;;;;16.53;7.63;;;3.50;88.70;;;;;;5036441;28;20419;-80
2022/04/11 02:12:09;;;;;;;14.00;9.50;;;3.50;88.70;;;;;;5052675;28;20181;-78
2022/04/11 02:14:34;;;;;;;12.83;8.80;;;3.60;88.60;;;;;;5055267;28;20196;-79
2022/04/11 02:17:00;;;;;;;14.43;9.10;;;3.60;88.60;;;;;;5055562;28;20512;-78
2022/04/11 02:19:26;;;;;;;13.93;9.67;;;3.60;88.40;;;;;;5061940;28;20202;-79
2022/04/11 02:21:51;;;;;;;12.67;7.70;;;3.50;88.40;;;;;;5053109;28;20184;-79
2022/04/11 02:24:17;;;;;;;14.93;8.90;;;3.50;88.70;;;;;;5052562;28;20252;-79
2022/04/11 02:26:43;;;;;;;12.53;8.20;;;3.60;88.70;;;;;;5050193;28;20193;-79
2022/04/11 02:29:09;;;;;;;14.10;8.20;;;3.60;88.60;;;;;;5058989;28;20177;-79
2022/04/11 02:31:34;;;;;;;15.93;8.20;;;3.70;88.10;;;;;;5052707;28;20150;-78
2022/04/11 02:34:00;;;;;;;13.47;8.47;;;3.70;87.80;;;;;;5053425;28;20178;-78
2022/04/11 02:36:26;;;;;;;10.53;7.67;;;3.80;87.60;;;;;;5055258;28;20511;-79
2022/04/11 02:38:52;;;;;;;13.30;8.50;;;3.70;87.40;;;;;;5051424;28;20185;-79
2022/04/11 02:41:18;;;;;;;15.30;8.30;;;3.80;87.60;;;;;;5051048;28;20272;-77
2022/04/11 02:43:44;;;;;;;11.53;8.33;;;3.80;87.80;;;;;;5053414;28;20438;-78
2022/04/11 02:46:10;;;;;;;15.35;9.45;;;3.80;88.00;;;;;;5051707;28;20444;-79
2022/04/11 02:48:37;;;;;;;15.63;9.90;;;3.90;87.70;;;;;;5046773;28;20200;-78
2022/04/11 02:51:02;;;;;;;17.20;10.83;;;3.90;87.40;;;;;;5048445;28;20444;-79
2022/04/11 02:53:28;;;;;;;16.97;10.30;;;3.80;87.40;;;;;;5055246;28;20439;-78
2022/04/11 02:55:54;;;;;;;17.43;10.07;;;3.70;87.70;;;;;;5043604;28;20659;-78
2022/04/11 02:58:19;;;;;;;20.50;11.20;;;3.70;87.80;;;;;;5057671;28;20181;-80
2022/04/11 03:00:45;;;;;;;19.13;11.20;;;3.70;88.10;;;;;;5043022;28;20204;-78
2022/04/11 03:03:11;;;;;;;20.87;11.03;;;3.70;88.10;;;;;;5050327;28;20979;-79
2022/04/11 03:05:37;;;;;;;17.20;10.30;;;3.70;88.00;;;;;;5048849;28;20258;-79
2022/04/11 03:08:03;;;;;;;20.23;10.85;;;3.70;88.10;;;;;;5038307;28;20455;-78
2022/04/11 03:10:29;;;;;;;17.53;10.40;;;3.70;88.00;;;;;;5042185;28;20254;-78
2022/04/11 03:12:55;;;;;;;15.03;9.90;;;3.60;88.40;;;;;;5047763;28;20491;-80
2022/04/11 03:15:21;;;;;;;15.93;9.80;;;3.70;88.40;;;;;;5053714;28;20257;-79
2022/04/11 03:17:46;;;;;;;18.77;11.20;;;3.70;88.10;;;;;;5055271;28;20276;-79
2022/04/11 03:20:12;;;;;;;17.20;10.67;;;3.70;87.80;;;;;;5054596;28;20174;-80
2022/04/11 03:22:38;;;;;;;18.40;10.40;;;3.70;88.00;;;;;;5039777;28;20651;-78
2022/04/11 03:25:04;;;;;;;17.53;10.77;;;3.60;88.00;;;;;;5034742;28;20205;-77
2022/04/11 03:27:30;;;;;;;17.65;11.38;;;3.60;88.40;;;;;;5030668;28;20189;-77
2022/04/11 03:29:56;;;;;;;18.57;11.40;;;3.50;88.40;;;;;;5039881;28;20195;-77
2022/04/11 03:32:21;;;;;;;16.77;11.37;;;3.50;88.70;;;;;;5040486;28;20184;-77
2022/04/11 03:34:49;;;;;;;13.60;10.10;;;3.50;88.90;;;;;;5032160;28;20209;-77
2022/04/11 03:37:14;;;;;;;18.25;11.05;;;3.60;88.70;;;;;;5039587;28;20204;-79
2022/04/11 03:39:40;;;;;;;15.97;10.90;;;3.60;88.70;;;;;;5035597;28;20177;-79
2022/04/11 03:42:06;;;;;;;18.57;10.47;;;3.50;88.60;;;;;;5033676;28;20185;-78
2022/04/11 03:44:32;;;;;;;15.98;10.23;;;3.50;88.70;;;;;;5038317;28;20177;-78
2022/04/11 03:46:57;;;;;;;17.30;11.20;;;3.50;89.00;;;;;;5040088;28;20848;-77
2022/04/11 03:49:23;;;;;;;21.43;11.10;;;3.50;88.90;;;;;;5036715;28;20181;-78
2022/04/11 03:51:51;;;;;;;16.47;10.77;;;3.50;88.90;;;;;;5038322;28;20197;-79
2022/04/11 03:54:16;;;;;;;17.10;11.23;;;3.50;88.90;;;;;;5047451;28;20808;-79
2022/04/11 03:56:42;;;;;;;16.73;9.30;;;3.50;88.70;;;;;;5032109;28;20829;-77
2022/04/11 03:59:08;;;;;;;14.53;9.17;;;3.50;89.20;;;;;;5038989;28;20180;-78
2022/04/11 04:01:33;;;;;;;16.00;10.20;;;3.60;89.20;;;;;;5018573;28;20660;-76
2022/04/11 04:03:59;;;;;;;16.70;9.40;;;3.60;88.90;;;;;;5038495;28;20185;-77
2022/04/11 04:06:25;;;;;;;18.00;11.13;;;3.50;88.70;;;;;;5032936;28;20572;-77
2022/04/11 04:08:50;;;;;;;15.87;9.90;;;3.50;88.90;;;;;;5043845;28;20192;-77
2022/04/11 04:11:16;;;;;;;17.40;11.73;;;3.60;88.70;;;;;;5038651;28;20189;-77
2022/04/11 04:13:43;;;;;;;17.33;9.83;;;3.60;88.60;;;;;;5037997;28;20181;-79
2022/04/11 04:16:08;;;;;;;14.60;10.13;;;3.50;88.60;;;;;;5031916;28;20240;-78
2022/04/11 04:18:34;;;;;;;15.57;9.97;;;3.40;88.70;;;;;;5032815;28;20447;-81
2022/04/11 04:21:00;;;;;;;17.30;9.77;;;3.40;88.90;;;;;;5039272;28;20185;-78
2022/04/11 04:23:26;;;;;;;19.00;10.70;;;3.30;88.90;;;;;;5033711;28;20269;-76
2022/04/11 04:25:51;;;;;;;18.40;10.90;;;3.30;89.20;;;;;;5033259;28;20447;-78
2022/04/11 04:28:17;;;;;;;19.93;12.03;;;3.30;89.30;;;;;;5032385;28;20192;-78
2022/04/11 04:30:46;;;;;;;17.73;11.23;;;3.30;89.30;;;;;;5038168;28;20189;-77
2022/04/11 04:33:14;;;;;;;16.47;9.37;;;3.10;89.60;;;;;;5039594;28;20185;-77
2022/04/11 04:35:40;;;;;;;18.05;10.30;;;3.10;90.00;;;;;;5032891;28;20473;-78
2022/04/11 04:38:06;;;;;;;19.23;10.20;;;3.10;90.20;;;;;;5036973;28;20366;-77
2022/04/11 04:40:32;;;;;;;15.07;8.97;;;3.20;90.20;;;;;;5040829;28;20478;-80
2022/04/11 04:42:58;;;;;;;12.33;8.73;;;3.10;90.10;;;;;;5036897;28;20244;-77
2022/04/11 04:45:23;;;;;;;18.03;9.67;;;3.20;90.00;;;;;;5034569;28;20216;-77
2022/04/11 04:47:49;;;;;;;14.70;9.33;;;3.10;90.00;;;;;;5037268;28;20428;-78
2022/04/11 04:50:15;;;;;;;16.77;9.63;;;3.10;90.00;;;;;;5038222;28;20193;-77
2022/04/11 04:52:41;;;;;;;18.57;11.07;;;3.10;90.10;;;;;;5041536;28;20204;-77
2022/04/11 04:55:07;;;;;;;18.27;10.10;;;3.10;90.00;;;;;;5035812;28;20686;-80
2022/04/11 04:57:34;;;;;;;19.70;10.90;;;3.10;90.10;;;;;;5041851;28;20454;-78
2022/04/11 05:00:00;;;;;;;16.45;9.88;;;3.00;90.20;;;;;;5038383;28;20487;-80
2022/04/11 05:02:26;;;;;;;16.85;10.27;;;3.00;90.40;;;;;;5040309;28;20653;-77
2022/04/11 05:04:51;;;;;;;18.50;10.80;;;3.00;90.50;;;;;;5033184;28;20228;-77
2022/04/11 05:07:17;;;;;;;17.90;11.20;;;3.00;90.50;;;;;;5033668;28;20272;-79
2022/04/11 05:09:43;;;;;;;19.80;11.00;;;3.00;90.30;;;;;;5033212;28;20189;-80
2022/04/11 05:12:09;;;;;;;16.73;11.30;;;3.00;90.40;;;;;;5037419;28;21252;-78
2022/04/11 05:14:34;;;;;;;25.27;10.53;;;2.80;90.40;;;;;;5048281;28;20630;-78
2022/04/11 05:17:00;;;;;;;20.07;11.53;;;2.80;90.70;;;;;;5036764;28;20603;-79
2022/04/11 05:19:26;;;;;;;19.50;11.50;;;2.90;90.70;;;;;;5032773;28;20216;-79
2022/04/11 05:21:52;;;;;;;23.07;12.63;;;2.90;90.80;;;;;;5036099;28;20567;-77
2022/04/11 05:24:18;;;;;;;18.63;10.77;;;2.90;90.60;;;;;;5033942;28;20335;-79
2022/04/11 05:26:44;;;;;;;16.30;10.05;;;3.00;90.60;;;;;;5037444;28;20274;-81
2022/04/11 05:29:09;;;;;;;18.33;11.43;;;3.00;90.40;;;;;;5034071;28;20658;-79
2022/04/11 05:31:35;;;;;;;14.13;10.00;;;2.90;90.30;;;;;;5039744;28;20177;-77
2022/04/11 05:34:01;;;;;;;21.43;11.50;;;2.90;90.30;;;;;;5034489;28;20279;-81
2022/04/11 05:36:27;;;;;;;18.77;12.33;;;2.90;90.30;;;;;;5037708;28;20258;-79
2022/04/11 05:38:53;;;;;;;16.87;10.87;;;3.00;90.30;;;;;;5033685;28;20788;-80
2022/04/11 05:41:19;;;;;;;18.00;11.40;;;3.00;90.00;;;;;;5032859;28;20491;-79
2022/04/11 05:43:44;;;;;;;21.70;12.10;;;3.00;90.10;;;;;;5037686;28;20178;-78
2022/04/11 05:46:11;;;;;;;17.57;10.80;;;3.10;89.90;;;;;;5045333;28;20231;-79
2022/04/11 05:48:49;;;;;;;19.85;10.70;;;3.10;89.90;;;;;;5039511;28;20185;-81
2022/04/11 05:51:14;;;;;;;21.97;11.57;;;3.10;89.70;;;;;;5036088;28;20193;-78
2022/04/11 05:53:41;;;;;;;19.87;11.70;;;3.20;89.70;;;;;;5038037;28;20412;-79
2022/04/11 05:56:08;;;;;;;21.37;10.23;;;3.30;89.60;;;;;;5051310;28;20189;-79
2022/04/11 05:58:33;;;;;;;17.47;9.77;;;3.40;89.30;;;;;;5053588;28;20420;-78
2022/04/11 06:00:59;;;;;;;23.60;11.17;;;3.50;89.50;;;;;;5055708;28;20894;-79
2022/04/11 06:03:25;;;;;;;24.27;11.30;;;3.60;89.20;;;;;;5054568;28;20427;-79
2022/04/11 06:05:51;;;;;;;20.77;11.40;;;3.60;89.00;;;;;;5033210;28;20803;-79
2022/04/11 06:08:16;;;;;;;17.80;10.90;;;3.60;88.60;;;;;;5033849;28;20674;-80
2022/04/11 06:10:44;;;;;;;15.80;11.47;;;3.70;88.40;;;;;;5034415;28;20336;-80
2022/04/11 06:13:10;;;;;;;17.60;11.00;;;3.80;87.80;;;;;;5033189;28;20455;-80
2022/04/11 06:15:35;;;;;;;15.93;10.67;;;3.80;87.70;;;;;;5039243;28;21019;-78
2022/04/11 06:18:01;;;;;;;20.20;12.57;;;3.90;87.40;;;;;;5032916;28;20645;-79
2022/04/11 06:20:27;;;;;;;19.30;11.87;;;3.90;87.10;;;;;;5038307;28;20188;-79
2022/04/11 06:22:52;;;;;;;17.20;11.57;;;4.00;87.10;;;;;;5035927;28;20268;-78
2022/04/11 06:25:18;;;;;;;18.30;11.53;;;4.00;86.90;;;;;;5037940;28;20209;-80
2022/04/11 06:27:44;;;;;;;19.90;12.10;;;4.10;86.60;;;;;;5036552;28;20181;-81
2022/04/11 06:30:10;;;;;;;20.50;11.87;;;4.20;86.60;;;;;;5036473;28;20185;-80
2022/04/11 06:32:36;;;;;;;19.67;12.40;;;4.30;86.30;;;;;;5040510;28;20189;-79
2022/04/11 06:35:02;;;;;;;19.43;11.93;;;4.30;85.90;;;;;;5036059;28;20561;-80
2022/04/11 06:37:28;;;;;;;18.10;11.37;;;4.30;85.90;;;;;;5037985;28;20213;-79
2022/04/11 06:39:55;;;;;;;24.33;13.97;;;4.40;85.90;;;;;;5040001;28;20432;-79
2022/04/11 06:42:21;;;;;;;26.83;11.93;;;4.50;85.30;;;;;;5041919;28;20212;-79
2022/04/11 06:44:46;;;;;;;19.23;11.73;;;4.60;85.00;;;;;;5041336;28;20420;-80
2022/04/11 06:47:12;;;;;;;18.47;11.97;;;4.70;84.60;;;;;;5045660;28;20434;-79
2022/04/11 06:49:38;;;;;;;19.97;12.20;;;4.70;84.40;;;;;;5036639;28;20836;-79
2022/04/11 06:52:07;;;;;;;20.70;11.27;;;4.80;84.40;;;;;;5039629;28;20238;-76
2022/04/11 06:54:33;;;;;;;25.00;13.03;;;4.90;84.30;;;;;;5027266;28;20950;-79
2022/04/11 06:56:59;;;;;;;28.10;12.67;;;5.00;84.00;;;;;;5037738;28;20493;-77
2022/04/11 06:59:25;;;;;;;22.83;13.70;;;5.10;83.80;;;;;;5051914;28;20469;-76
2022/04/11 07:01:54;;;;;;;19.10;12.23;;;5.20;83.80;;;;;;5037059;28;20271;-79
2022/04/11 07:04:21;;;;;;;26.50;13.23;;;5.40;83.80;;;;;;5034776;28;20463;-78
2022/04/11 07:06:47;;;;;;;23.20;12.70;;;5.50;83.70;;;;;;5032277;28;20448;-77
2022/04/11 07:09:13;;;;;;;27.30;13.30;;;5.60;83.40;;;;;;5034119;28;20452;-79
2022/04/11 07:11:39;;;;;;;29.63;12.47;;;5.70;83.40;;;;;;5039423;28;20447;-77
2022/04/11 07:14:06;;;;;;;21.13;12.30;;;5.90;82.80;;;;;;5037593;28;20424;-78
2022/04/11 07:16:32;;;;;;;22.47;12.57;;;6.00;81.80;;;;;;5034633;28;20201;-77
2022/04/11 07:18:58;;;;;;;22.07;11.70;;;6.10;81.40;;;;;;5035728;28;20427;-79
2022/04/11 07:21:24;;;;;;;24.83;12.60;;;6.30;80.60;;;;;;5044162;28;20419;-76
2022/04/11 07:23:50;;;;;;;22.33;12.17;;;6.40;78.40;;;;;;5033514;28;20295;-77
2022/04/11 07:26:16;;;;;;;22.33;12.00;;;6.50;77.80;;;;;;5033115;28;20522;-76
2022/04/11 07:28:41;;;;;;;25.57;10.80;;;6.60;77.10;;;;;;5030513;28;20423;-80
2022/04/11 07:31:07;;;;;;;16.30;10.10;;;6.70;75.80;;;;;;5037687;28;20268;-81
2022/04/11 07:33:33;;;;;;;24.03;10.77;;;6.80;75.70;;;;;;5027473;28;20185;-82
2022/04/11 07:35:59;;;;;;;18.30;9.60;;;7.00;75.40;;;;;;5036754;28;20823;-81
2022/04/11 07:38:25;;;;;;;13.43;6.60;;;7.10;74.50;;;;;;5041565;28;20497;-81
2022/04/11 07:40:51;;;;;;;11.47;6.47;;;7.20;71.70;;;;;;5040089;28;20651;-81
2022/04/11 07:43:17;;;;;;;9.60;5.80;;;7.40;70.10;;;;;;5047521;28;20524;-82
2022/04/11 07:45:43;;;;;;;10.67;5.97;;;7.50;68.20;;;;;;5045906;28;20213;-81
2022/04/11 07:48:09;;;;;;;9.80;6.60;;;7.70;67.50;;;;;;5048431;28;20431;-82
2022/04/11 07:50:35;;;;;;;7.87;5.47;;;7.90;67.30;;;;;;5051985;28;20460;-81
2022/04/11 07:53:01;;;;;;;12.60;5.70;;;8.00;66.90;;;;;;5050132;28;20424;-81
2022/04/11 07:55:26;;;;;;;10.27;6.23;;;8.10;66.00;;;;;;5052063;28;20457;-83
2022/04/11 07:57:53;;;;;;;8.83;5.90;;;8.20;65.60;;;;;;5045412;28;20456;-81
2022/04/11 08:00:20;;;;;;;13.30;6.83;;;8.30;65.10;;;;;;5041173;28;20181;-80
2022/04/11 08:02:52;;;;;;;10.43;6.10;;;8.40;64.70;;;;;;5035506;28;20492;-81
2022/04/11 08:05:21;;;;;;;9.13;6.23;;;8.50;64.70;;;;;;5035938;28;20763;-81
2022/04/11 08:07:48;;;;;;;12.50;6.00;;;8.60;64.40;;;;;;5041314;28;20432;-80
2022/04/11 08:10:14;;;;;;;11.20;5.87;;;8.70;63.80;;;;;;5042781;28;20419;-79
2022/04/11 08:12:41;;;;;;;23.57;6.37;;;8.80;63.80;;;;;;5055778;28;20431;-82
2022/04/11 08:15:07;;;;;;;11.90;6.20;;;8.90;63.70;;;;;;5064457;28;20196;-82
2022/04/11 08:17:33;;;;;;;9.93;5.20;;;9.00;62.60;;;;;;5048725;28;20514;-82
2022/04/11 08:19:59;;;;;;;11.33;5.53;;;9.00;62.60;;;;;;5038890;28;20420;-81
2022/04/11 08:22:24;;;;;;;8.77;5.70;;;9.10;62.80;;;;;;5047896;28;20181;-80
2022/04/11 08:24:50;;;;;;;8.33;6.23;;;9.20;62.80;;;;;;5055163;28;20225;-79
2022/04/11 08:27:16;;;;;;;7.47;5.63;;;9.30;61.70;;;;;;5056750;28;20233;-81
2022/04/11 08:29:43;;;;;;;14.20;5.90;;;9.30;61.60;;;;;;5055620;28;20193;-81
2022/04/11 08:32:08;;;;;;;8.03;4.83;;;9.30;61.00;;;;;;5057188;28;20515;-81
2022/04/11 08:34:34;;;;;;;9.80;5.20;;;9.40;60.90;;;;;;5056515;28;20427;-80
2022/04/11 08:37:00;;;;;;;10.83;6.10;;;9.50;60.10;;;;;;5049738;28;20273;-79
2022/04/11 08:39:26;;;;;;;9.10;5.80;;;9.60;59.90;;;;;;5061862;28;20188;-81
2022/04/11 08:41:58;;;;;;;8.33;4.90;;;9.60;59.30;;;;;;5064460;28;20185;-81
2022/04/11 08:44:26;;;;;;;8.23;5.47;;;9.70;59.50;;;;;;5039078;28;20330;-80
2022/04/11 08:46:55;;;;;;;8.53;5.33;;;9.80;59.20;;;;;;5036435;28;20455;-80
2022/04/11 08:49:21;;;;;;;9.17;4.90;;;10.00;58.80;;;;;;5036362;28;20423;-81
2022/04/11 08:51:47;;;;;;;8.53;5.00;;;10.00;57.60;;;;;;5034981;28;20412;-80
2022/04/11 08:54:13;;;;;;;7.70;4.70;;;10.10;57.40;;;;;;5041218;28;20423;-81
2022/04/11 08:56:39;;;;;;;10.43;5.20;;;10.20;57.40;;;;;;5036455;28;20470;-81
2022/04/11 08:59:05;;;;;;;8.03;4.87;;;10.30;57.60;;;;;;5038487;28;20690;-81
2022/04/11 09:01:34;;;;;;;8.27;4.60;;;10.40;56.60;;;;;;5054980;28;20432;-82
2022/04/11 09:04:00;;;;;;;8.97;4.97;;;10.40;56.80;;;;;;5049720;28;20201;-81
2022/04/11 09:06:26;;;;;;;7.03;4.53;;;10.40;56.50;;;;;;5057277;28;20546;-81
2022/04/11 09:08:54;;;;;;;5.93;4.20;;;10.50;57.00;;;;;;5059407;28;20169;-82
2022/04/11 09:11:35;;;;;;;8.20;5.17;;;10.60;55.80;;;;;;5053266;28;20436;-81
2022/04/11 09:14:06;;;;;;;8.27;4.50;;;10.60;56.00;;;;;;5051416;28;20423;-80
2022/04/11 09:16:52;;;;;;;9.17;4.90;;;10.70;56.00;;;;;;5052754;28;20466;-80
2022/04/11 09:19:22;;;;;;;6.80;4.63;;;10.70;56.20;;;;;;5049514;28;20869;-80
2022/04/11 09:21:50;;;;;;;8.53;4.53;;;10.80;56.00;;;;;;5038086;28;20412;-82
2022/04/11 09:24:21;;;;;;;6.80;4.20;;;10.90;55.70;;;;;;5037360;28;20413;-80
2022/04/11 09:26:48;;;;;;;6.13;3.70;;;11.00;54.40;;;;;;5042375;28;20436;-80
2022/04/11 09:29:17;;;;;;;8.27;4.50;;;11.20;54.00;;;;;;5034755;28;20470;-81
2022/04/11 09:31:43;;;;;;;3.80;3.50;;;11.20;53.30;;;;;;5034715;28;20835;-79
2022/04/11 09:34:25;;;;;;;6.80;4.20;;;11.30;53.70;;;;;;5035018;28;20427;-83
2022/04/11 09:36:55;;;;;;;5.57;4.07;;;11.40;53.70;;;;;;5035533;28;20555;-81
2022/04/11 09:39:22;;;;;;;5.07;3.60;;;11.50;53.20;;;;;;5033164;28;20530;-80
2022/04/11 09:41:49;;;;;;;6.17;3.70;;;11.60;52.90;;;;;;5035035;28;20416;-80
2022/04/11 09:44:28;;;;;;;5.93;3.40;;;11.70;51.20;;;;;;5038738;28;20419;-83
2022/04/11 09:47:05;;;;;;;5.60;3.70;;;11.80;49.90;;;;;;5040599;28;20452;-81
2022/04/11 09:49:32;;;;;;;6.80;3.20;;;11.80;49.70;;;;;;5039605;28;20638;-81
2022/04/11 09:52:14;;;;;;;9.83;4.00;;;12.00;49.70;;;;;;5035084;28;20416;-82
2022/04/11 09:54:45;;;;;;;6.10;3.90;;;12.10;49.00;;;;;;5033559;28;20420;-80
2022/04/11 09:57:17;;;;;;;6.87;3.10;;;12.20;47.30;;;;;;5042213;28;20541;-80
2022/04/11 09:59:44;;;;;;;7.77;3.33;;;12.30;46.20;;;;;;5046928;28;20419;-80
2022/04/11 10:02:10;;;;;;;4.33;3.17;;;12.30;46.30;;;;;;5046251;28;20937;-80
2022/04/11 10:04:38;;;;;;;5.60;3.80;;;12.30;46.70;;;;;;5045608;28;20491;-79
2022/04/11 10:07:04;;;;;;;4.90;3.50;;;12.40;47.10;;;;;;5044585;28;20509;-80
2022/04/11 10:09:30;;;;;;;6.20;4.30;;;12.40;47.40;;;;;;5039924;28;20432;-80
2022/04/11 10:11:56;;;;;;;5.97;3.33;;;12.40;47.30;;;;;;5044102;28;20916;-80
2022/04/11 10:14:26;;;;;;;4.23;3.03;;;12.40;46.30;;;;;;5040158;28;20425;-81
2022/04/11 10:16:55;;;;;;;4.63;3.60;;;12.50;46.20;;;;;;5039240;28;20475;-80
2022/04/11 10:19:29;;;;;;;4.37;2.97;;;12.60;46.10;;;;;;5038745;28;20416;-80
2022/04/11 10:22:01;;;;;;;7.60;3.27;;;12.80;46.10;;;;;;5047159;28;20420;-81
2022/04/11 10:24:37;;;;;;;3.90;3.10;;;12.90;44.90;;;;;;5045025;28;20512;-80
2022/04/11 10:27:16;;;;;;;4.63;3.10;;;12.90;44.70;;;;;;5043093;28;20801;-81
2022/04/11 10:29:42;;;;;;;4.87;3.20;;;12.90;44.90;;;;;;5040357;28;20431;-81
2022/04/11 10:32:16;;;;;;;5.03;2.60;;;13.00;43.70;;;;;;5038061;28;20420;-81
2022/04/11 10:34:49;;;;;;;5.03;3.10;;;13.10;43.90;;;;;;5045311;28;20449;-79
2022/04/11 10:37:19;;;;;;;6.90;3.40;;;13.20;44.10;;;;;;5041064;28;20513;-82
2022/04/11 10:39:46;;;;;;;4.40;2.43;;;13.30;43.20;;;;;;5039363;28;20424;-81
2022/04/11 10:42:14;;;;;;;3.90;3.30;;;13.50;43.40;;;;;;5039363;28;20420;-81
2022/04/11 10:44:50;;;;;;;9.07;3.10;;;13.60;43.10;;;;;;5037606;28;20523;-80
2022/04/11 10:47:16;;;;;;;2.77;2.60;;;13.70;42.60;;;;;;5043994;28;20412;-81
2022/04/11 10:49:45;;;;;;;5.80;3.00;;;14.20;42.00;;;;;;5051840;28;20463;-81
2022/04/11 10:52:35;;;;;;;4.27;2.97;;;14.70;41.20;;;;;;5038861;28;20803;-80
2022/04/11 10:55:19;;;;;;;6.90;3.57;;;15.00;40.70;;;;;;5042853;28;20449;-80
2022/04/11 10:57:48;;;;;;;3.47;2.63;;;15.20;39.60;;;;;;5034603;28;20451;-81
2022/04/11 11:00:23;;;;;;;4.57;3.00;;;15.30;39.50;;;;;;5046716;28;20424;-80
2022/04/11 11:02:52;;;;;;;3.97;3.20;;;15.70;38.80;;;;;;5044636;28;20431;-81
2022/04/11 11:05:36;;;;;;;5.30;3.10;;;15.60;37.90;;;;;;5047072;28;20454;-81
2022/04/11 11:08:11;;;;;;;4.77;3.20;;;15.60;37.90;;;;;;5042903;28;20444;-81
2022/04/11 11:10:45;;;;;;;6.20;3.40;;;15.80;37.60;;;;;;5037320;28;20419;-81
2022/04/11 11:13:34;;;;;;;6.97;3.20;;;16.00;37.90;;;;;;5035630;28;21254;-82
2022/04/11 11:16:20;;;;;;;4.90;3.20;;;15.90;37.40;;;;;;5030116;28;20477;-81
2022/04/11 11:18:48;;;;;;;4.60;3.00;;;15.70;37.40;;;;;;5009767;28;20452;-82
2022/04/11 11:21:37;;;;;;;4.50;2.80;;;15.40;38.20;;;;;;5037168;28;20412;-82
2022/04/11 11:26:45;;;;;;;6.13;3.33;;;15.70;38.60;;;;;;5046379;28;20442;-80
2022/04/11 11:29:26;;;;;;;5.70;3.20;;;15.90;37.90;;;;;;5034247;28;20769;-81
2022/04/11 11:32:00;;;;;;;3.67;2.93;;;16.10;38.20;;;;;;5043956;28;20421;-83
2022/04/11 11:34:29;;;;;;;3.77;3.40;;;16.50;37.00;;;;;;5036132;28;20815;-81
2022/04/11 11:37:03;;;;;;;5.43;3.50;;;16.40;36.00;;;;;;5048535;28;20830;-80
2022/04/11 11:39:30;;;;;;;7.80;3.50;;;16.20;36.60;;;;;;5048331;28;20425;-81
2022/04/11 11:42:05;;;;;;;5.40;3.40;;;15.80;37.50;;;;;;5036829;28;20420;-82
2022/04/11 11:44:40;;;;;;;4.40;3.13;;;15.60;37.20;;;;;;5037487;28;20417;-82
2022/04/11 11:47:06;;;;;;;8.27;3.50;;;15.30;37.90;;;;;;5040994;28;20419;-80
2022/04/11 11:49:49;;;;;;;4.50;3.20;;;15.10;38.20;;;;;;5038823;28;20431;-80
2022/04/11 11:52:22;;;;;;;10.40;3.30;;;15.10;37.80;;;;;;5039074;28;20261;-81
2022/04/11 11:54:52;;;;;;;5.50;3.50;;;15.30;38.00;;;;;;5043847;28;20427;-82
2022/04/11 11:57:27;;;;;;;4.10;3.13;;;15.80;35.60;;;;;;5053225;28;20462;-81
2022/04/11 12:00:03;;;;;;;3.90;2.90;;;16.00;35.30;;;;;;5052329;28;20844;-81
2022/04/11 12:05:22;;;;;;;5.97;3.50;;;16.80;34.50;;;;;;5040045;28;20529;-81
2022/04/11 12:07:49;;;;;;;5.07;3.10;;;17.20;34.40;;;;;;5038207;28;20462;-80
2022/04/11 12:10:18;;;;;;;4.77;3.43;;;17.40;33.30;;;;;;5038537;28;20852;-81
2022/04/11 12:12:47;;;;;;;5.07;3.40;;;17.20;33.70;;;;;;5037422;28;20443;-83
2022/04/11 12:15:14;;;;;;;4.83;3.33;;;17.20;33.50;;;;;;5039201;28;20445;-80
2022/04/11 12:17:46;;;;;;;4.90;2.93;;;17.00;32.70;;;;;;5035804;28;20467;-79
2022/04/11 12:20:21;;;;;;;6.60;3.43;;;16.70;33.70;;;;;;5034441;28;20472;-81
2022/04/11 12:23:05;;;;;;;6.13;3.37;;;16.80;33.90;;;;;;5040996;28;21022;-81
2022/04/11 12:25:51;;;;;;;6.83;3.13;;;17.20;32.80;;;;;;5037134;28;20808;-81
2022/04/11 12:28:28;;;;;;;4.37;2.83;;;17.40;32.40;;;;;;5034351;28;20423;-82
2022/04/11 12:31:03;;;;;;;4.13;3.13;;;17.70;32.10;;;;;;5037142;28;20419;-80
2022/04/11 12:33:43;;;;;;;5.00;3.27;;;17.70;32.10;;;;;;5038643;28;20423;-78
2022/04/11 12:36:14;;;;;;;9.37;3.30;;;17.90;32.40;;;;;;5039012;28;21230;-80
2022/04/11 12:38:52;;;;;;;5.83;3.17;;;18.10;32.50;;;;;;5037243;28;20443;-82
2022/04/11 12:41:29;;;;;;;5.90;3.00;;;18.20;31.50;;;;;;5038124;28;20443;-83
2022/04/11 12:44:12;;;;;;;4.60;3.17;;;18.30;32.10;;;;;;5037839;28;20418;-80
2022/04/11 12:47:08;;;;;;;6.80;3.67;;;18.30;31.20;;;;;;5036406;28;20440;-82
2022/04/11 12:49:50;;;;;;;5.10;2.90;;;18.40;29.80;;;;;;5018581;28;20453;-80
2022/04/11 12:52:21;;;;;;;5.60;3.40;;;18.40;29.60;;;;;;5024141;28;20506;-82
2022/04/11 12:54:59;;;;;;;5.83;4.10;;;18.70;30.50;;;;;;5005526;28;20435;-81